sensor_id;sensor_type;location;lat;lon;timestamp;P1;durP1;ratioP1;P2;durP2;ratioP2
57593;SDS011;43423;46.510;6.686;2023-09-18T00:00:25;6.72;;;3.30;;
57593;SDS011;43423;46.510;6.686;2023-09-18T00:03:11;7.85;;;3.67;;
57593;SDS011;43423;46.510;6.686;2023-09-18T00:05:36;7.75;;;3.70;;
57593;SDS011;43423;46.510;6.686;2023-09-18T00:08:02;7.05;;;3.45;;
57593;SDS011;43423;46.510;6.686;2023-09-18T00:10:28;7.15;;;4.38;;
57593;SDS011;43423;46.510;6.686;2023-09-18T00:12:57;6.70;;;3.92;;
57593;SDS011;43423;46.510;6.686;2023-09-18T00:15:22;6.97;;;3.60;;
57593;SDS011;43423;46.510;6.686;2023-09-18T00:17:49;10.50;;;3.65;;
57593;SDS011;43423;46.510;6.686;2023-09-18T00:20:14;6.63;;;3.25;;
57593;SDS011;43423;46.510;6.686;2023-09-18T00:22:43;6.43;;;3.35;;
57593;SDS011;43423;46.510;6.686;2023-09-18T00:25:08;5.97;;;3.00;;
57593;SDS011;43423;46.510;6.686;2023-09-18T00:27:34;7.80;;;2.83;;
57593;SDS011;43423;46.510;6.686;2023-09-18T00:30:01;5.90;;;2.90;;
57593;SDS011;43423;46.510;6.686;2023-09-18T00:32:28;7.05;;;3.72;;
57593;SDS011;43423;46.510;6.686;2023-09-18T00:34:54;8.77;;;3.60;;
57593;SDS011;43423;46.510;6.686;2023-09-18T00:37:20;4.85;;;2.60;;
57593;SDS011;43423;46.510;6.686;2023-09-18T00:39:46;5.93;;;3.22;;
57593;SDS011;43423;46.510;6.686;2023-09-18T00:42:11;7.07;;;3.50;;
57593;SDS011;43423;46.510;6.686;2023-09-18T00:44:43;9.25;;;3.20;;
57593;SDS011;43423;46.510;6.686;2023-09-18T00:47:09;5.38;;;3.08;;
57593;SDS011;43423;46.510;6.686;2023-09-18T00:49:38;8.32;;;2.90;;
57593;SDS011;43423;46.510;6.686;2023-09-18T00:52:06;4.53;;;2.83;;
57593;SDS011;43423;46.510;6.686;2023-09-18T00:54:33;4.70;;;2.75;;
57593;SDS011;43423;46.510;6.686;2023-09-18T00:57:01;6.47;;;2.95;;
57593;SDS011;43423;46.510;6.686;2023-09-18T00:59:27;9.43;;;3.00;;
57593;SDS011;43423;46.510;6.686;2023-09-18T01:01:52;7.03;;;3.03;;
57593;SDS011;43423;46.510;6.686;2023-09-18T01:04:19;9.95;;;3.30;;
57593;SDS011;43423;46.510;6.686;2023-09-18T01:06:45;7.78;;;3.67;;
57593;SDS011;43423;46.510;6.686;2023-09-18T01:09:15;4.10;;;2.60;;
57593;SDS011;43423;46.510;6.686;2023-09-18T01:14:29;14.30;;;3.43;;
57593;SDS011;43423;46.510;6.686;2023-09-18T01:16:59;15.20;;;3.22;;
57593;SDS011;43423;46.510;6.686;2023-09-18T01:19:35;7.33;;;3.77;;
57593;SDS011;43423;46.510;6.686;2023-09-18T01:22:05;8.93;;;3.42;;
57593;SDS011;43423;46.510;6.686;2023-09-18T01:24:32;9.73;;;3.65;;
57593;SDS011;43423;46.510;6.686;2023-09-18T01:26:59;4.70;;;2.97;;
57593;SDS011;43423;46.510;6.686;2023-09-18T01:29:25;7.07;;;3.10;;
57593;SDS011;43423;46.510;6.686;2023-09-18T01:31:51;7.70;;;3.67;;
57593;SDS011;43423;46.510;6.686;2023-09-18T01:34:28;9.40;;;3.38;;
57593;SDS011;43423;46.510;6.686;2023-09-18T01:36:59;6.70;;;3.42;;
57593;SDS011;43423;46.510;6.686;2023-09-18T01:39:25;9.10;;;3.65;;
57593;SDS011;43423;46.510;6.686;2023-09-18T01:41:58;7.18;;;3.35;;
57593;SDS011;43423;46.510;6.686;2023-09-18T01:44:25;13.63;;;3.72;;
57593;SDS011;43423;46.510;6.686;2023-09-18T01:46:50;9.18;;;3.58;;
57593;SDS011;43423;46.510;6.686;2023-09-18T01:49:32;5.68;;;3.50;;
57593;SDS011;43423;46.510;6.686;2023-09-18T01:54:31;8.90;;;3.75;;
57593;SDS011;43423;46.510;6.686;2023-09-18T01:56:58;5.47;;;3.15;;
57593;SDS011;43423;46.510;6.686;2023-09-18T01:59:24;12.88;;;3.95;;
57593;SDS011;43423;46.510;6.686;2023-09-18T02:01:50;14.10;;;3.55;;
57593;SDS011;43423;46.510;6.686;2023-09-18T02:04:17;5.10;;;2.90;;
57593;SDS011;43423;46.510;6.686;2023-09-18T02:06:43;5.72;;;3.70;;
57593;SDS011;43423;46.510;6.686;2023-09-18T02:09:09;12.75;;;4.22;;
57593;SDS011;43423;46.510;6.686;2023-09-18T02:11:36;6.32;;;3.40;;
57593;SDS011;43423;46.510;6.686;2023-09-18T02:14:04;7.00;;;3.47;;
57593;SDS011;43423;46.510;6.686;2023-09-18T02:16:34;5.53;;;3.58;;
57593;SDS011;43423;46.510;6.686;2023-09-18T02:19:06;8.32;;;3.20;;
57593;SDS011;43423;46.510;6.686;2023-09-18T02:21:32;8.82;;;3.97;;
57593;SDS011;43423;46.510;6.686;2023-09-18T02:23:57;6.28;;;3.55;;
57593;SDS011;43423;46.510;6.686;2023-09-18T02:26:24;11.73;;;3.33;;
57593;SDS011;43423;46.510;6.686;2023-09-18T02:28:51;6.40;;;3.90;;
57593;SDS011;43423;46.510;6.686;2023-09-18T02:31:19;6.20;;;4.13;;
57593;SDS011;43423;46.510;6.686;2023-09-18T02:33:44;6.63;;;4.15;;
57593;SDS011;43423;46.510;6.686;2023-09-18T02:36:11;9.55;;;3.83;;
57593;SDS011;43423;46.510;6.686;2023-09-18T02:38:36;8.70;;;3.42;;
57593;SDS011;43423;46.510;6.686;2023-09-18T02:41:02;6.50;;;3.33;;
57593;SDS011;43423;46.510;6.686;2023-09-18T02:43:27;6.38;;;3.67;;
57593;SDS011;43423;46.510;6.686;2023-09-18T02:45:53;6.53;;;2.83;;
57593;SDS011;43423;46.510;6.686;2023-09-18T02:48:18;9.80;;;3.97;;
57593;SDS011;43423;46.510;6.686;2023-09-18T02:50:45;7.35;;;3.05;;
57593;SDS011;43423;46.510;6.686;2023-09-18T02:53:17;5.60;;;3.42;;
57593;SDS011;43423;46.510;6.686;2023-09-18T02:55:47;9.27;;;3.50;;
57593;SDS011;43423;46.510;6.686;2023-09-18T02:58:14;4.93;;;2.65;;
57593;SDS011;43423;46.510;6.686;2023-09-18T03:00:41;3.80;;;2.72;;
57593;SDS011;43423;46.510;6.686;2023-09-18T03:03:11;7.13;;;2.95;;
57593;SDS011;43423;46.510;6.686;2023-09-18T03:05:38;7.40;;;3.33;;
57593;SDS011;43423;46.510;6.686;2023-09-18T03:08:05;5.05;;;2.95;;
57593;SDS011;43423;46.510;6.686;2023-09-18T03:10:34;6.80;;;3.20;;
57593;SDS011;43423;46.510;6.686;2023-09-18T03:13:02;5.78;;;2.80;;
57593;SDS011;43423;46.510;6.686;2023-09-18T03:15:29;8.75;;;3.50;;
57593;SDS011;43423;46.510;6.686;2023-09-18T03:17:55;15.30;;;3.75;;
57593;SDS011;43423;46.510;6.686;2023-09-18T03:20:22;10.63;;;3.50;;
57593;SDS011;43423;46.510;6.686;2023-09-18T03:22:49;7.00;;;4.30;;
57593;SDS011;43423;46.510;6.686;2023-09-18T03:25:16;10.93;;;3.47;;
57593;SDS011;43423;46.510;6.686;2023-09-18T03:27:41;9.13;;;3.53;;
57593;SDS011;43423;46.510;6.686;2023-09-18T03:30:07;11.48;;;3.20;;
57593;SDS011;43423;46.510;6.686;2023-09-18T03:32:33;9.80;;;3.50;;
57593;SDS011;43423;46.510;6.686;2023-09-18T03:34:59;9.93;;;3.45;;
57593;SDS011;43423;46.510;6.686;2023-09-18T03:37:25;15.10;;;4.65;;
57593;SDS011;43423;46.510;6.686;2023-09-18T03:39:50;8.57;;;3.53;;
57593;SDS011;43423;46.510;6.686;2023-09-18T03:42:16;7.40;;;3.50;;
57593;SDS011;43423;46.510;6.686;2023-09-18T03:44:41;10.35;;;3.15;;
57593;SDS011;43423;46.510;6.686;2023-09-18T03:47:07;7.50;;;3.47;;
57593;SDS011;43423;46.510;6.686;2023-09-18T03:49:32;7.15;;;3.08;;
57593;SDS011;43423;46.510;6.686;2023-09-18T03:51:58;10.98;;;3.92;;
57593;SDS011;43423;46.510;6.686;2023-09-18T03:54:24;7.15;;;3.22;;
57593;SDS011;43423;46.510;6.686;2023-09-18T03:56:49;9.70;;;3.28;;
57593;SDS011;43423;46.510;6.686;2023-09-18T03:59:15;10.65;;;3.50;;
57593;SDS011;43423;46.510;6.686;2023-09-18T04:01:40;11.63;;;3.53;;
57593;SDS011;43423;46.510;6.686;2023-09-18T04:04:06;9.43;;;3.53;;
57593;SDS011;43423;46.510;6.686;2023-09-18T04:06:40;16.15;;;4.30;;
57593;SDS011;43423;46.510;6.686;2023-09-18T04:09:07;8.27;;;3.25;;
57593;SDS011;43423;46.510;6.686;2023-09-18T04:11:32;8.68;;;3.63;;
57593;SDS011;43423;46.510;6.686;2023-09-18T04:13:59;11.68;;;4.47;;
57593;SDS011;43423;46.510;6.686;2023-09-18T04:16:25;10.80;;;4.53;;
57593;SDS011;43423;46.510;6.686;2023-09-18T04:18:53;11.23;;;4.70;;
57593;SDS011;43423;46.510;6.686;2023-09-18T04:21:19;10.38;;;4.15;;
57593;SDS011;43423;46.510;6.686;2023-09-18T04:23:47;11.68;;;3.97;;
57593;SDS011;43423;46.510;6.686;2023-09-18T04:26:12;15.60;;;4.30;;
57593;SDS011;43423;46.510;6.686;2023-09-18T04:28:41;13.88;;;4.18;;
57593;SDS011;43423;46.510;6.686;2023-09-18T04:31:07;16.10;;;4.60;;
57593;SDS011;43423;46.510;6.686;2023-09-18T04:33:33;16.88;;;4.32;;
57593;SDS011;43423;46.510;6.686;2023-09-18T04:35:58;13.32;;;4.15;;
57593;SDS011;43423;46.510;6.686;2023-09-18T04:38:24;10.73;;;3.97;;
57593;SDS011;43423;46.510;6.686;2023-09-18T04:40:49;13.05;;;4.57;;
57593;SDS011;43423;46.510;6.686;2023-09-18T04:43:23;11.43;;;4.65;;
57593;SDS011;43423;46.510;6.686;2023-09-18T04:45:50;15.15;;;4.15;;
57593;SDS011;43423;46.510;6.686;2023-09-18T04:48:16;14.38;;;4.80;;
57593;SDS011;43423;46.510;6.686;2023-09-18T04:50:42;11.38;;;4.20;;
57593;SDS011;43423;46.510;6.686;2023-09-18T04:53:08;9.30;;;3.88;;
57593;SDS011;43423;46.510;6.686;2023-09-18T04:55:34;5.50;;;3.17;;
57593;SDS011;43423;46.510;6.686;2023-09-18T04:58:00;8.70;;;3.63;;
57593;SDS011;43423;46.510;6.686;2023-09-18T05:00:25;10.55;;;3.45;;
57593;SDS011;43423;46.510;6.686;2023-09-18T05:02:52;7.25;;;2.38;;
57593;SDS011;43423;46.510;6.686;2023-09-18T05:05:18;7.18;;;2.63;;
57593;SDS011;43423;46.510;6.686;2023-09-18T05:07:44;7.40;;;2.28;;
57593;SDS011;43423;46.510;6.686;2023-09-18T05:10:09;7.43;;;2.72;;
57593;SDS011;43423;46.510;6.686;2023-09-18T05:12:38;5.35;;;2.45;;
57593;SDS011;43423;46.510;6.686;2023-09-18T05:15:04;6.07;;;2.03;;
57593;SDS011;43423;46.510;6.686;2023-09-18T05:17:40;5.90;;;1.35;;
57593;SDS011;43423;46.510;6.686;2023-09-18T05:20:11;2.50;;;1.15;;
57593;SDS011;43423;46.510;6.686;2023-09-18T05:22:42;2.05;;;0.93;;
57593;SDS011;43423;46.510;6.686;2023-09-18T05:25:08;2.95;;;1.45;;
57593;SDS011;43423;46.510;6.686;2023-09-18T05:27:35;7.28;;;1.38;;
57593;SDS011;43423;46.510;6.686;2023-09-18T05:30:12;3.08;;;1.13;;
57593;SDS011;43423;46.510;6.686;2023-09-18T05:32:46;5.05;;;1.27;;
57593;SDS011;43423;46.510;6.686;2023-09-18T05:35:13;3.55;;;1.10;;
57593;SDS011;43423;46.510;6.686;2023-09-18T05:37:39;2.13;;;0.88;;
57593;SDS011;43423;46.510;6.686;2023-09-18T05:40:07;1.23;;;0.80;;
57593;SDS011;43423;46.510;6.686;2023-09-18T05:42:35;3.53;;;0.90;;
57593;SDS011;43423;46.510;6.686;2023-09-18T05:45:05;3.88;;;1.00;;
57593;SDS011;43423;46.510;6.686;2023-09-18T05:47:32;3.33;;;0.70;;
57593;SDS011;43423;46.510;6.686;2023-09-18T05:49:58;1.33;;;0.70;;
57593;SDS011;43423;46.510;6.686;2023-09-18T05:52:24;5.65;;;0.80;;
57593;SDS011;43423;46.510;6.686;2023-09-18T05:54:50;6.65;;;0.93;;
57593;SDS011;43423;46.510;6.686;2023-09-18T05:57:17;2.83;;;1.05;;
57593;SDS011;43423;46.510;6.686;2023-09-18T05:59:43;4.28;;;1.17;;
57593;SDS011;43423;46.510;6.686;2023-09-18T06:02:11;0.75;;;0.50;;
57593;SDS011;43423;46.510;6.686;2023-09-18T06:04:37;5.25;;;1.05;;
57593;SDS011;43423;46.510;6.686;2023-09-18T06:07:03;1.58;;;0.70;;
57593;SDS011;43423;46.510;6.686;2023-09-18T06:09:29;4.80;;;0.68;;
57593;SDS011;43423;46.510;6.686;2023-09-18T06:11:54;2.70;;;0.90;;
57593;SDS011;43423;46.510;6.686;2023-09-18T06:14:20;2.72;;;0.75;;
57593;SDS011;43423;46.510;6.686;2023-09-18T06:16:46;3.30;;;0.98;;
57593;SDS011;43423;46.510;6.686;2023-09-18T06:19:12;2.03;;;1.02;;
57593;SDS011;43423;46.510;6.686;2023-09-18T06:21:37;3.97;;;0.70;;
57593;SDS011;43423;46.510;6.686;2023-09-18T06:24:03;1.27;;;0.50;;
57593;SDS011;43423;46.510;6.686;2023-09-18T06:26:29;1.05;;;0.73;;
57593;SDS011;43423;46.510;6.686;2023-09-18T06:28:54;2.17;;;0.77;;
57593;SDS011;43423;46.510;6.686;2023-09-18T06:31:20;1.38;;;0.68;;
57593;SDS011;43423;46.510;6.686;2023-09-18T06:33:46;2.67;;;0.80;;
57593;SDS011;43423;46.510;6.686;2023-09-18T06:36:12;1.23;;;0.70;;
57593;SDS011;43423;46.510;6.686;2023-09-18T06:38:38;4.30;;;0.85;;
57593;SDS011;43423;46.510;6.686;2023-09-18T06:41:04;1.52;;;0.80;;
57593;SDS011;43423;46.510;6.686;2023-09-18T06:43:29;2.80;;;1.10;;
57593;SDS011;43423;46.510;6.686;2023-09-18T06:45:55;2.35;;;0.77;;
57593;SDS011;43423;46.510;6.686;2023-09-18T06:48:23;2.25;;;1.23;;
57593;SDS011;43423;46.510;6.686;2023-09-18T06:50:49;5.72;;;1.13;;
57593;SDS011;43423;46.510;6.686;2023-09-18T06:53:15;3.58;;;1.20;;
57593;SDS011;43423;46.510;6.686;2023-09-18T06:55:40;2.15;;;0.82;;
57593;SDS011;43423;46.510;6.686;2023-09-18T06:58:06;3.92;;;0.88;;
57593;SDS011;43423;46.510;6.686;2023-09-18T07:00:32;4.43;;;0.80;;
57593;SDS011;43423;46.510;6.686;2023-09-18T07:02:57;2.42;;;0.95;;
57593;SDS011;43423;46.510;6.686;2023-09-18T07:05:23;5.13;;;1.25;;
57593;SDS011;43423;46.510;6.686;2023-09-18T07:07:49;1.20;;;0.80;;
57593;SDS011;43423;46.510;6.686;2023-09-18T07:10:14;5.28;;;1.08;;
57593;SDS011;43423;46.510;6.686;2023-09-18T07:12:40;1.98;;;0.95;;
57593;SDS011;43423;46.510;6.686;2023-09-18T07:15:05;2.38;;;1.10;;
57593;SDS011;43423;46.510;6.686;2023-09-18T07:17:32;3.58;;;1.05;;
57593;SDS011;43423;46.510;6.686;2023-09-18T07:19:58;3.53;;;0.80;;
57593;SDS011;43423;46.510;6.686;2023-09-18T07:22:24;4.32;;;1.10;;
57593;SDS011;43423;46.510;6.686;2023-09-18T07:24:50;5.15;;;1.10;;
57593;SDS011;43423;46.510;6.686;2023-09-18T07:27:15;2.60;;;0.60;;
57593;SDS011;43423;46.510;6.686;2023-09-18T07:29:41;2.83;;;1.00;;
57593;SDS011;43423;46.510;6.686;2023-09-18T07:32:07;0.70;;;0.60;;
57593;SDS011;43423;46.510;6.686;2023-09-18T07:34:33;1.27;;;0.93;;
57593;SDS011;43423;46.510;6.686;2023-09-18T07:36:58;4.32;;;1.00;;
57593;SDS011;43423;46.510;6.686;2023-09-18T07:39:24;4.93;;;1.10;;
57593;SDS011;43423;46.510;6.686;2023-09-18T07:41:49;2.55;;;1.00;;
57593;SDS011;43423;46.510;6.686;2023-09-18T07:44:19;2.58;;;0.90;;
57593;SDS011;43423;46.510;6.686;2023-09-18T07:46:46;4.68;;;1.30;;
57593;SDS011;43423;46.510;6.686;2023-09-18T07:49:11;2.13;;;0.95;;
57593;SDS011;43423;46.510;6.686;2023-09-18T07:51:37;3.40;;;1.10;;
57593;SDS011;43423;46.510;6.686;2023-09-18T07:54:03;4.72;;;1.25;;
57593;SDS011;43423;46.510;6.686;2023-09-18T07:56:29;7.70;;;0.98;;
57593;SDS011;43423;46.510;6.686;2023-09-18T07:58:59;4.07;;;0.90;;
57593;SDS011;43423;46.510;6.686;2023-09-18T08:01:25;3.53;;;1.45;;
57593;SDS011;43423;46.510;6.686;2023-09-18T08:03:50;2.25;;;0.80;;
57593;SDS011;43423;46.510;6.686;2023-09-18T08:06:16;3.35;;;0.82;;
57593;SDS011;43423;46.510;6.686;2023-09-18T08:08:44;2.08;;;0.80;;
57593;SDS011;43423;46.510;6.686;2023-09-18T08:11:10;1.08;;;0.63;;
57593;SDS011;43423;46.510;6.686;2023-09-18T08:13:35;2.88;;;0.90;;
57593;SDS011;43423;46.510;6.686;2023-09-18T08:16:02;2.15;;;0.82;;
57593;SDS011;43423;46.510;6.686;2023-09-18T08:18:29;1.00;;;0.65;;
57593;SDS011;43423;46.510;6.686;2023-09-18T08:20:55;2.00;;;1.08;;
57593;SDS011;43423;46.510;6.686;2023-09-18T08:23:23;2.95;;;0.85;;
57593;SDS011;43423;46.510;6.686;2023-09-18T08:25:49;3.88;;;0.90;;
57593;SDS011;43423;46.510;6.686;2023-09-18T08:28:16;1.70;;;1.02;;
57593;SDS011;43423;46.510;6.686;2023-09-18T08:30:42;1.10;;;0.80;;
57593;SDS011;43423;46.510;6.686;2023-09-18T08:33:15;1.67;;;0.90;;
57593;SDS011;43423;46.510;6.686;2023-09-18T08:35:40;6.28;;;0.88;;
57593;SDS011;43423;46.510;6.686;2023-09-18T08:38:06;2.22;;;0.80;;
57593;SDS011;43423;46.510;6.686;2023-09-18T08:40:35;5.03;;;1.00;;
57593;SDS011;43423;46.510;6.686;2023-09-18T08:43:00;0.95;;;0.50;;
57593;SDS011;43423;46.510;6.686;2023-09-18T08:45:43;2.85;;;0.80;;
57593;SDS011;43423;46.510;6.686;2023-09-18T08:48:13;2.10;;;0.75;;
57593;SDS011;43423;46.510;6.686;2023-09-18T08:50:39;4.00;;;0.93;;
57593;SDS011;43423;46.510;6.686;2023-09-18T08:53:05;3.88;;;0.80;;
57593;SDS011;43423;46.510;6.686;2023-09-18T08:55:31;2.08;;;0.70;;
57593;SDS011;43423;46.510;6.686;2023-09-18T08:57:58;5.43;;;0.85;;
57593;SDS011;43423;46.510;6.686;2023-09-18T09:00:25;2.42;;;1.33;;
57593;SDS011;43423;46.510;6.686;2023-09-18T09:02:51;3.97;;;1.02;;
57593;SDS011;43423;46.510;6.686;2023-09-18T09:05:22;2.28;;;0.70;;
57593;SDS011;43423;46.510;6.686;2023-09-18T09:07:48;1.42;;;0.77;;
57593;SDS011;43423;46.510;6.686;2023-09-18T09:10:15;4.20;;;1.10;;
57593;SDS011;43423;46.510;6.686;2023-09-18T09:12:52;2.50;;;0.82;;
57593;SDS011;43423;46.510;6.686;2023-09-18T09:18:03;5.35;;;0.90;;
57593;SDS011;43423;46.510;6.686;2023-09-18T09:20:32;1.30;;;0.60;;
57593;SDS011;43423;46.510;6.686;2023-09-18T09:23:02;2.50;;;0.52;;
57593;SDS011;43423;46.510;6.686;2023-09-18T09:25:29;3.63;;;1.38;;
57593;SDS011;43423;46.510;6.686;2023-09-18T09:28:00;1.67;;;0.80;;
57593;SDS011;43423;46.510;6.686;2023-09-18T09:30:27;2.33;;;0.68;;
57593;SDS011;43423;46.510;6.686;2023-09-18T09:32:54;2.42;;;0.80;;
57593;SDS011;43423;46.510;6.686;2023-09-18T09:35:22;4.22;;;1.05;;
57593;SDS011;43423;46.510;6.686;2023-09-18T09:37:54;2.85;;;0.90;;
57593;SDS011;43423;46.510;6.686;2023-09-18T09:40:22;2.78;;;0.80;;
57593;SDS011;43423;46.510;6.686;2023-09-18T09:42:53;6.18;;;1.00;;
57593;SDS011;43423;46.510;6.686;2023-09-18T09:45:26;1.83;;;0.93;;
57593;SDS011;43423;46.510;6.686;2023-09-18T09:47:54;2.55;;;0.88;;
57593;SDS011;43423;46.510;6.686;2023-09-18T09:50:20;1.65;;;0.90;;
57593;SDS011;43423;46.510;6.686;2023-09-18T09:52:47;1.17;;;0.80;;
57593;SDS011;43423;46.510;6.686;2023-09-18T09:55:33;1.25;;;0.75;;
57593;SDS011;43423;46.510;6.686;2023-09-18T09:58:02;6.45;;;1.50;;
57593;SDS011;43423;46.510;6.686;2023-09-18T10:00:38;1.33;;;0.73;;
57593;SDS011;43423;46.510;6.686;2023-09-18T10:03:16;4.95;;;1.10;;
57593;SDS011;43423;46.510;6.686;2023-09-18T10:05:44;3.92;;;0.80;;
57593;SDS011;43423;46.510;6.686;2023-09-18T10:08:12;3.13;;;1.08;;
57593;SDS011;43423;46.510;6.686;2023-09-18T10:10:43;5.93;;;1.25;;
57593;SDS011;43423;46.510;6.686;2023-09-18T10:13:15;3.45;;;0.93;;
57593;SDS011;43423;46.510;6.686;2023-09-18T10:15:44;2.28;;;1.42;;
57593;SDS011;43423;46.510;6.686;2023-09-18T10:18:19;3.17;;;1.10;;
57593;SDS011;43423;46.510;6.686;2023-09-18T10:20:54;4.03;;;1.00;;
57593;SDS011;43423;46.510;6.686;2023-09-18T10:23:46;0.88;;;0.73;;
57593;SDS011;43423;46.510;6.686;2023-09-18T10:26:25;3.25;;;1.02;;
57593;SDS011;43423;46.510;6.686;2023-09-18T10:28:54;2.75;;;1.30;;
57593;SDS011;43423;46.510;6.686;2023-09-18T10:31:25;3.22;;;1.13;;
57593;SDS011;43423;46.510;6.686;2023-09-18T10:33:52;1.25;;;0.80;;
57593;SDS011;43423;46.510;6.686;2023-09-18T10:36:19;1.08;;;0.80;;
57593;SDS011;43423;46.510;6.686;2023-09-18T10:38:46;1.10;;;0.55;;
57593;SDS011;43423;46.510;6.686;2023-09-18T10:41:17;2.35;;;0.70;;
57593;SDS011;43423;46.510;6.686;2023-09-18T10:43:45;2.22;;;1.08;;
57593;SDS011;43423;46.510;6.686;2023-09-18T10:46:12;2.13;;;1.13;;
57593;SDS011;43423;46.510;6.686;2023-09-18T10:48:40;3.05;;;1.65;;
57593;SDS011;43423;46.510;6.686;2023-09-18T10:51:08;1.23;;;0.60;;
57593;SDS011;43423;46.510;6.686;2023-09-18T10:53:36;4.55;;;1.80;;
57593;SDS011;43423;46.510;6.686;2023-09-18T10:56:02;4.13;;;1.00;;
57593;SDS011;43423;46.510;6.686;2023-09-18T10:58:32;0.82;;;0.75;;
57593;SDS011;43423;46.510;6.686;2023-09-18T11:01:07;1.60;;;0.82;;
57593;SDS011;43423;46.510;6.686;2023-09-18T11:03:37;2.92;;;1.17;;
57593;SDS011;43423;46.510;6.686;2023-09-18T11:06:03;3.95;;;1.33;;
57593;SDS011;43423;46.510;6.686;2023-09-18T11:08:30;3.85;;;1.30;;
57593;SDS011;43423;46.510;6.686;2023-09-18T11:11:03;3.58;;;1.08;;
57593;SDS011;43423;46.510;6.686;2023-09-18T11:13:35;3.92;;;1.27;;
57593;SDS011;43423;46.510;6.686;2023-09-18T11:16:13;2.38;;;1.05;;
57593;SDS011;43423;46.510;6.686;2023-09-18T11:18:47;2.15;;;1.63;;
57593;SDS011;43423;46.510;6.686;2023-09-18T11:21:18;4.90;;;1.45;;
57593;SDS011;43423;46.510;6.686;2023-09-18T11:23:48;3.95;;;1.25;;
57593;SDS011;43423;46.510;6.686;2023-09-18T11:26:23;4.63;;;1.42;;
57593;SDS011;43423;46.510;6.686;2023-09-18T11:28:53;3.97;;;1.90;;
57593;SDS011;43423;46.510;6.686;2023-09-18T11:31:19;8.90;;;1.40;;
57593;SDS011;43423;46.510;6.686;2023-09-18T11:33:47;2.20;;;1.25;;
57593;SDS011;43423;46.510;6.686;2023-09-18T11:38:56;2.83;;;1.85;;
57593;SDS011;43423;46.510;6.686;2023-09-18T11:41:23;5.18;;;1.70;;
57593;SDS011;43423;46.510;6.686;2023-09-18T11:43:50;6.28;;;1.67;;
57593;SDS011;43423;46.510;6.686;2023-09-18T11:46:18;2.28;;;1.15;;
57593;SDS011;43423;46.510;6.686;2023-09-18T11:48:46;4.22;;;1.23;;
57593;SDS011;43423;46.510;6.686;2023-09-18T11:51:20;2.72;;;0.98;;
57593;SDS011;43423;46.510;6.686;2023-09-18T11:53:49;3.72;;;1.45;;
57593;SDS011;43423;46.510;6.686;2023-09-18T11:56:17;2.67;;;1.00;;
57593;SDS011;43423;46.510;6.686;2023-09-18T11:58:44;2.67;;;1.20;;
57593;SDS011;43423;46.510;6.686;2023-09-18T12:01:11;2.83;;;0.85;;
57593;SDS011;43423;46.510;6.686;2023-09-18T12:03:38;1.77;;;0.88;;
57593;SDS011;43423;46.510;6.686;2023-09-18T12:06:04;3.95;;;1.40;;
57593;SDS011;43423;46.510;6.686;2023-09-18T12:08:30;1.52;;;0.90;;
57593;SDS011;43423;46.510;6.686;2023-09-18T12:10:57;6.07;;;0.70;;
57593;SDS011;43423;46.510;6.686;2023-09-18T12:13:26;1.15;;;0.60;;
57593;SDS011;43423;46.510;6.686;2023-09-18T12:15:56;1.33;;;0.90;;
57593;SDS011;43423;46.510;6.686;2023-09-18T12:18:26;3.17;;;1.00;;
57593;SDS011;43423;46.510;6.686;2023-09-18T12:20:54;1.35;;;0.73;;
57593;SDS011;43423;46.510;6.686;2023-09-18T12:23:21;3.10;;;1.08;;
57593;SDS011;43423;46.510;6.686;2023-09-18T12:25:47;5.60;;;0.98;;
57593;SDS011;43423;46.510;6.686;2023-09-18T12:28:15;1.92;;;1.10;;
57593;SDS011;43423;46.510;6.686;2023-09-18T12:30:42;3.97;;;0.73;;
57593;SDS011;43423;46.510;6.686;2023-09-18T12:33:08;6.13;;;1.02;;
57593;SDS011;43423;46.510;6.686;2023-09-18T12:35:34;4.57;;;1.65;;
57593;SDS011;43423;46.510;6.686;2023-09-18T12:38:01;2.60;;;1.23;;
57593;SDS011;43423;46.510;6.686;2023-09-18T12:40:30;3.08;;;1.23;;
57593;SDS011;43423;46.510;6.686;2023-09-18T12:42:58;2.75;;;1.05;;
57593;SDS011;43423;46.510;6.686;2023-09-18T12:45:28;1.00;;;0.75;;
57593;SDS011;43423;46.510;6.686;2023-09-18T12:47:55;3.78;;;1.00;;
57593;SDS011;43423;46.510;6.686;2023-09-18T12:50:24;2.00;;;0.60;;
57593;SDS011;43423;46.510;6.686;2023-09-18T12:52:50;1.40;;;0.70;;
57593;SDS011;43423;46.510;6.686;2023-09-18T12:55:25;2.05;;;0.82;;
57593;SDS011;43423;46.510;6.686;2023-09-18T12:57:52;1.05;;;0.70;;
57593;SDS011;43423;46.510;6.686;2023-09-18T13:00:19;3.05;;;1.05;;
57593;SDS011;43423;46.510;6.686;2023-09-18T13:02:51;2.63;;;0.90;;
57593;SDS011;43423;46.510;6.686;2023-09-18T13:05:20;1.42;;;0.68;;
57593;SDS011;43423;46.510;6.686;2023-09-18T13:07:50;1.20;;;0.60;;
57593;SDS011;43423;46.510;6.686;2023-09-18T13:10:26;5.70;;;1.08;;
57593;SDS011;43423;46.510;6.686;2023-09-18T13:12:52;1.33;;;0.80;;
57593;SDS011;43423;46.510;6.686;2023-09-18T13:15:30;1.42;;;0.68;;
57593;SDS011;43423;46.510;6.686;2023-09-18T13:17:57;0.68;;;0.68;;
57593;SDS011;43423;46.510;6.686;2023-09-18T13:20:26;3.15;;;1.55;;
57593;SDS011;43423;46.510;6.686;2023-09-18T13:22:57;1.10;;;0.70;;
57593;SDS011;43423;46.510;6.686;2023-09-18T13:25:26;1.65;;;0.73;;
57593;SDS011;43423;46.510;6.686;2023-09-18T13:27:54;1.65;;;0.70;;
57593;SDS011;43423;46.510;6.686;2023-09-18T13:30:20;4.28;;;0.88;;
57593;SDS011;43423;46.510;6.686;2023-09-18T13:32:47;0.70;;;0.70;;
57593;SDS011;43423;46.510;6.686;2023-09-18T13:35:15;3.38;;;0.77;;
57593;SDS011;43423;46.510;6.686;2023-09-18T13:37:41;1.15;;;0.70;;
57593;SDS011;43423;46.510;6.686;2023-09-18T13:40:07;1.58;;;0.98;;
57593;SDS011;43423;46.510;6.686;2023-09-18T13:42:39;1.13;;;0.50;;
57593;SDS011;43423;46.510;6.686;2023-09-18T13:45:05;0.93;;;0.60;;
57593;SDS011;43423;46.510;6.686;2023-09-18T13:47:31;2.35;;;1.00;;
57593;SDS011;43423;46.510;6.686;2023-09-18T13:49:59;1.50;;;0.82;;
57593;SDS011;43423;46.510;6.686;2023-09-18T13:52:25;0.63;;;0.50;;
57593;SDS011;43423;46.510;6.686;2023-09-18T13:54:52;4.53;;;0.80;;
57593;SDS011;43423;46.510;6.686;2023-09-18T13:57:18;1.77;;;1.08;;
57593;SDS011;43423;46.510;6.686;2023-09-18T13:59:44;6.43;;;0.80;;
57593;SDS011;43423;46.510;6.686;2023-09-18T14:02:11;2.15;;;0.70;;
57593;SDS011;43423;46.510;6.686;2023-09-18T14:04:37;3.00;;;0.85;;
57593;SDS011;43423;46.510;6.686;2023-09-18T14:07:03;2.53;;;0.70;;
57593;SDS011;43423;46.510;6.686;2023-09-18T14:09:29;1.05;;;0.70;;
57593;SDS011;43423;46.510;6.686;2023-09-18T14:11:55;1.95;;;0.68;;
57593;SDS011;43423;46.510;6.686;2023-09-18T14:14:24;2.38;;;0.52;;
57593;SDS011;43423;46.510;6.686;2023-09-18T14:16:50;2.55;;;0.93;;
57593;SDS011;43423;46.510;6.686;2023-09-18T14:19:16;0.57;;;0.43;;
57593;SDS011;43423;46.510;6.686;2023-09-18T14:21:42;1.13;;;0.52;;
57593;SDS011;43423;46.510;6.686;2023-09-18T14:24:08;2.55;;;0.85;;
57593;SDS011;43423;46.510;6.686;2023-09-18T14:26:35;2.85;;;1.60;;
57593;SDS011;43423;46.510;6.686;2023-09-18T14:29:09;5.57;;;1.00;;
57593;SDS011;43423;46.510;6.686;2023-09-18T14:31:38;6.10;;;1.10;;
57593;SDS011;43423;46.510;6.686;2023-09-18T14:34:04;1.33;;;0.70;;
57593;SDS011;43423;46.510;6.686;2023-09-18T14:36:34;2.08;;;0.80;;
57593;SDS011;43423;46.510;6.686;2023-09-18T14:39:01;0.82;;;0.73;;
57593;SDS011;43423;46.510;6.686;2023-09-18T14:41:28;2.20;;;0.75;;
57593;SDS011;43423;46.510;6.686;2023-09-18T14:43:54;2.78;;;0.98;;
57593;SDS011;43423;46.510;6.686;2023-09-18T14:46:20;3.47;;;1.20;;
57593;SDS011;43423;46.510;6.686;2023-09-18T14:48:46;4.00;;;0.85;;
57593;SDS011;43423;46.510;6.686;2023-09-18T14:51:11;2.35;;;0.90;;
57593;SDS011;43423;46.510;6.686;2023-09-18T14:53:37;3.60;;;1.00;;
57593;SDS011;43423;46.510;6.686;2023-09-18T14:56:03;1.40;;;0.80;;
57593;SDS011;43423;46.510;6.686;2023-09-18T14:58:29;3.38;;;1.05;;